sensor_id;sensor_type;location;lat;lon;timestamp;P1;durP1;ratioP1;P2;durP2;ratioP2
20365;SDS011;10341;49.894;8.822;2023-09-07T00:03:13;4.47;;;3.47;;
20365;SDS011;10341;49.894;8.822;2023-09-07T00:08:33;4.97;;;3.33;;
20365;SDS011;10341;49.894;8.822;2023-09-07T00:13:53;5.40;;;3.37;;
20365;SDS011;10341;49.894;8.822;2023-09-07T00:19:11;4.88;;;3.00;;
20365;SDS011;10341;49.894;8.822;2023-09-07T00:24:31;5.53;;;2.70;;
20365;SDS011;10341;49.894;8.822;2023-09-07T00:29:50;5.35;;;3.60;;
20365;SDS011;10341;49.894;8.822;2023-09-07T00:35:10;4.47;;;3.45;;
20365;SDS011;10341;49.894;8.822;2023-09-07T00:40:30;5.10;;;4.10;;
20365;SDS011;10341;49.894;8.822;2023-09-07T00:45:49;5.63;;;4.37;;
20365;SDS011;10341;49.894;8.822;2023-09-07T00:51:08;7.60;;;4.03;;
20365;SDS011;10341;49.894;8.822;2023-09-07T00:56:29;5.63;;;3.92;;
20365;SDS011;10341;49.894;8.822;2023-09-07T01:01:50;4.72;;;3.50;;
20365;SDS011;10341;49.894;8.822;2023-09-07T01:12:42;6.25;;;3.88;;
20365;SDS011;10341;49.894;8.822;2023-09-07T01:18:01;4.05;;;3.13;;
20365;SDS011;10341;49.894;8.822;2023-09-07T01:23:22;3.95;;;2.90;;
20365;SDS011;10341;49.894;8.822;2023-09-07T01:28:42;3.95;;;2.97;;
20365;SDS011;10341;49.894;8.822;2023-09-07T01:34:01;3.20;;;2.53;;
20365;SDS011;10341;49.894;8.822;2023-09-07T01:39:21;2.70;;;2.13;;
20365;SDS011;10341;49.894;8.822;2023-09-07T01:44:41;2.65;;;2.20;;
20365;SDS011;10341;49.894;8.822;2023-09-07T01:50:02;4.00;;;2.65;;
20365;SDS011;10341;49.894;8.822;2023-09-07T01:55:23;3.15;;;2.47;;
20365;SDS011;10341;49.894;8.822;2023-09-07T02:00:43;2.92;;;2.40;;
20365;SDS011;10341;49.894;8.822;2023-09-07T02:06:02;4.60;;;3.33;;
20365;SDS011;10341;49.894;8.822;2023-09-07T02:11:22;4.35;;;3.47;;
20365;SDS011;10341;49.894;8.822;2023-09-07T02:16:42;6.68;;;4.60;;
20365;SDS011;10341;49.894;8.822;2023-09-07T02:22:02;4.97;;;4.03;;
20365;SDS011;10341;49.894;8.822;2023-09-07T02:27:21;6.93;;;4.20;;
20365;SDS011;10341;49.894;8.822;2023-09-07T02:32:42;5.25;;;3.65;;
20365;SDS011;10341;49.894;8.822;2023-09-07T02:38:01;6.07;;;3.47;;
20365;SDS011;10341;49.894;8.822;2023-09-07T02:43:21;4.80;;;3.40;;
20365;SDS011;10341;49.894;8.822;2023-09-07T02:48:41;5.15;;;3.63;;
20365;SDS011;10341;49.894;8.822;2023-09-07T02:54:01;5.50;;;3.75;;
20365;SDS011;10341;49.894;8.822;2023-09-07T02:59:24;4.28;;;3.15;;
20365;SDS011;10341;49.894;8.822;2023-09-07T03:04:43;3.95;;;3.17;;
20365;SDS011;10341;49.894;8.822;2023-09-07T03:10:03;5.38;;;3.78;;
20365;SDS011;10341;49.894;8.822;2023-09-07T03:20:43;3.88;;;3.10;;
20365;SDS011;10341;49.894;8.822;2023-09-07T03:31:23;3.73;;;2.73;;
20365;SDS011;10341;49.894;8.822;2023-09-07T03:42:03;4.70;;;3.03;;
20365;SDS011;10341;49.894;8.822;2023-09-07T03:52:48;4.50;;;3.35;;
20365;SDS011;10341;49.894;8.822;2023-09-07T03:58:09;5.00;;;3.58;;
20365;SDS011;10341;49.894;8.822;2023-09-07T04:03:29;7.35;;;4.03;;
20365;SDS011;10341;49.894;8.822;2023-09-07T04:14:08;6.68;;;4.47;;
20365;SDS011;10341;49.894;8.822;2023-09-07T04:19:27;7.38;;;4.43;;
20365;SDS011;10341;49.894;8.822;2023-09-07T04:24:47;6.28;;;4.57;;
20365;SDS011;10341;49.894;8.822;2023-09-07T04:30:08;5.90;;;4.10;;
20365;SDS011;10341;49.894;8.822;2023-09-07T04:35:29;6.65;;;4.03;;
20365;SDS011;10341;49.894;8.822;2023-09-07T04:46:09;7.20;;;4.40;;
20365;SDS011;10341;49.894;8.822;2023-09-07T04:51:29;8.60;;;4.63;;
20365;SDS011;10341;49.894;8.822;2023-09-07T04:56:49;9.82;;;5.47;;
20365;SDS011;10341;49.894;8.822;2023-09-07T05:02:09;11.23;;;6.07;;
20365;SDS011;10341;49.894;8.822;2023-09-07T05:07:28;6.25;;;4.63;;
20365;SDS011;10341;49.894;8.822;2023-09-07T05:12:48;12.57;;;6.10;;
20365;SDS011;10341;49.894;8.822;2023-09-07T05:18:08;8.45;;;5.05;;
20365;SDS011;10341;49.894;8.822;2023-09-07T05:23:27;9.32;;;5.05;;
20365;SDS011;10341;49.894;8.822;2023-09-07T05:28:47;6.50;;;4.45;;
20365;SDS011;10341;49.894;8.822;2023-09-07T05:34:07;6.63;;;4.82;;
20365;SDS011;10341;49.894;8.822;2023-09-07T05:39:26;7.28;;;4.85;;
20365;SDS011;10341;49.894;8.822;2023-09-07T05:44:46;10.43;;;6.33;;
20365;SDS011;10341;49.894;8.822;2023-09-07T05:50:06;9.23;;;5.23;;
20365;SDS011;10341;49.894;8.822;2023-09-07T05:55:25;9.48;;;5.25;;
20365;SDS011;10341;49.894;8.822;2023-09-07T06:00:45;8.97;;;5.23;;
20365;SDS011;10341;49.894;8.822;2023-09-07T06:06:04;8.10;;;4.68;;
20365;SDS011;10341;49.894;8.822;2023-09-07T06:11:24;6.68;;;4.53;;
20365;SDS011;10341;49.894;8.822;2023-09-07T06:16:44;9.82;;;5.40;;
20365;SDS011;10341;49.894;8.822;2023-09-07T06:22:03;7.88;;;5.80;;
20365;SDS011;10341;49.894;8.822;2023-09-07T06:27:23;7.72;;;6.10;;
20365;SDS011;10341;49.894;8.822;2023-09-07T06:32:42;9.13;;;6.00;;
20365;SDS011;10341;49.894;8.822;2023-09-07T06:38:03;6.78;;;5.22;;
20365;SDS011;10341;49.894;8.822;2023-09-07T06:43:23;8.45;;;6.30;;
20365;SDS011;10341;49.894;8.822;2023-09-07T06:48:43;11.45;;;6.88;;
20365;SDS011;10341;49.894;8.822;2023-09-07T06:54:02;11.50;;;6.95;;
20365;SDS011;10341;49.894;8.822;2023-09-07T06:59:22;7.78;;;5.90;;
20365;SDS011;10341;49.894;8.822;2023-09-07T07:04:42;6.43;;;5.33;;
20365;SDS011;10341;49.894;8.822;2023-09-07T07:10:02;8.10;;;5.32;;
20365;SDS011;10341;49.894;8.822;2023-09-07T07:15:24;7.85;;;5.22;;
20365;SDS011;10341;49.894;8.822;2023-09-07T07:20:43;8.27;;;6.43;;
20365;SDS011;10341;49.894;8.822;2023-09-07T07:31:23;5.97;;;5.03;;
20365;SDS011;10341;49.894;8.822;2023-09-07T07:36:42;6.85;;;5.50;;
20365;SDS011;10341;49.894;8.822;2023-09-07T07:42:02;7.10;;;4.47;;
20365;SDS011;10341;49.894;8.822;2023-09-07T07:47:23;5.22;;;4.30;;
20365;SDS011;10341;49.894;8.822;2023-09-07T07:52:45;5.32;;;3.85;;
20365;SDS011;10341;49.894;8.822;2023-09-07T07:58:05;6.55;;;3.85;;
20365;SDS011;10341;49.894;8.822;2023-09-07T08:03:29;5.15;;;4.07;;
20365;SDS011;10341;49.894;8.822;2023-09-07T08:08:50;4.22;;;3.53;;
20365;SDS011;10341;49.894;8.822;2023-09-07T08:14:09;4.28;;;3.75;;
20365;SDS011;10341;49.894;8.822;2023-09-07T08:19:29;4.78;;;3.80;;
20365;SDS011;10341;49.894;8.822;2023-09-07T08:24:50;3.38;;;3.08;;
20365;SDS011;10341;49.894;8.822;2023-09-07T08:30:11;4.55;;;3.60;;
20365;SDS011;10341;49.894;8.822;2023-09-07T08:35:34;4.35;;;2.85;;
20365;SDS011;10341;49.894;8.822;2023-09-07T08:40:54;11.68;;;3.50;;
20365;SDS011;10341;49.894;8.822;2023-09-07T08:46:20;29.27;;;6.00;;
20365;SDS011;10341;49.894;8.822;2023-09-07T08:51:41;2.97;;;2.63;;
20365;SDS011;10341;49.894;8.822;2023-09-07T08:57:02;4.25;;;3.00;;
20365;SDS011;10341;49.894;8.822;2023-09-07T09:02:22;4.90;;;2.95;;
20365;SDS011;10341;49.894;8.822;2023-09-07T09:07:42;3.03;;;2.72;;
20365;SDS011;10341;49.894;8.822;2023-09-07T09:13:01;3.25;;;2.70;;
20365;SDS011;10341;49.894;8.822;2023-09-07T09:18:21;3.45;;;2.90;;
20365;SDS011;10341;49.894;8.822;2023-09-07T09:23:41;26.33;;;4.68;;
20365;SDS011;10341;49.894;8.822;2023-09-07T09:29:02;20.77;;;4.15;;
20365;SDS011;10341;49.894;8.822;2023-09-07T09:34:21;3.00;;;2.70;;
20365;SDS011;10341;49.894;8.822;2023-09-07T09:39:41;3.08;;;2.50;;
20365;SDS011;10341;49.894;8.822;2023-09-07T09:45:01;6.68;;;2.83;;
20365;SDS011;10341;49.894;8.822;2023-09-07T09:50:24;3.05;;;2.75;;
20365;SDS011;10341;49.894;8.822;2023-09-07T09:55:43;2.75;;;2.50;;
20365;SDS011;10341;49.894;8.822;2023-09-07T10:01:02;5.20;;;2.75;;
20365;SDS011;10341;49.894;8.822;2023-09-07T10:06:25;2.97;;;2.67;;
20365;SDS011;10341;49.894;8.822;2023-09-07T10:11:51;4.60;;;2.50;;
20365;SDS011;10341;49.894;8.822;2023-09-07T10:17:21;2.97;;;2.67;;
20365;SDS011;10341;49.894;8.822;2023-09-07T10:22:41;2.58;;;2.35;;
20365;SDS011;10341;49.894;8.822;2023-09-07T10:28:00;5.47;;;3.15;;
20365;SDS011;10341;49.894;8.822;2023-09-07T10:33:20;4.57;;;2.75;;
20365;SDS011;10341;49.894;8.822;2023-09-07T10:38:40;3.20;;;2.90;;
20365;SDS011;10341;49.894;8.822;2023-09-07T10:44:00;3.78;;;2.63;;
20365;SDS011;10341;49.894;8.822;2023-09-07T10:49:19;2.97;;;2.45;;
20365;SDS011;10341;49.894;8.822;2023-09-07T10:54:38;3.40;;;2.70;;
20365;SDS011;10341;49.894;8.822;2023-09-07T10:59:57;3.72;;;2.35;;
20365;SDS011;10341;49.894;8.822;2023-09-07T11:05:17;3.03;;;2.65;;
20365;SDS011;10341;49.894;8.822;2023-09-07T11:10:37;4.25;;;2.50;;
20365;SDS011;10341;49.894;8.822;2023-09-07T11:15:57;4.30;;;2.28;;
20365;SDS011;10341;49.894;8.822;2023-09-07T11:21:17;3.30;;;2.30;;
20365;SDS011;10341;49.894;8.822;2023-09-07T11:26:45;3.67;;;2.55;;
20365;SDS011;10341;49.894;8.822;2023-09-07T11:32:06;2.22;;;2.03;;
20365;SDS011;10341;49.894;8.822;2023-09-07T11:37:26;3.00;;;2.55;;
20365;SDS011;10341;49.894;8.822;2023-09-07T11:42:46;2.58;;;2.33;;
20365;SDS011;10341;49.894;8.822;2023-09-07T11:48:05;6.28;;;2.30;;
20365;SDS011;10341;49.894;8.822;2023-09-07T11:53:25;2.95;;;2.47;;
20365;SDS011;10341;49.894;8.822;2023-09-07T11:58:45;2.63;;;2.20;;
20365;SDS011;10341;49.894;8.822;2023-09-07T12:17:28;2.78;;;2.40;;
20365;SDS011;10341;49.894;8.822;2023-09-07T12:22:47;4.60;;;2.60;;
20365;SDS011;10341;49.894;8.822;2023-09-07T12:28:07;2.72;;;2.40;;
20365;SDS011;10341;49.894;8.822;2023-09-07T12:33:27;4.45;;;2.35;;
20365;SDS011;10341;49.894;8.822;2023-09-07T12:38:49;2.30;;;2.10;;
20365;SDS011;10341;49.894;8.822;2023-09-07T12:44:08;3.25;;;2.40;;
20365;SDS011;10341;49.894;8.822;2023-09-07T12:49:28;2.60;;;2.40;;
20365;SDS011;10341;49.894;8.822;2023-09-07T12:54:47;3.85;;;2.20;;
20365;SDS011;10341;49.894;8.822;2023-09-07T13:00:07;2.50;;;2.28;;
20365;SDS011;10341;49.894;8.822;2023-09-07T13:05:27;2.65;;;2.35;;
20365;SDS011;10341;49.894;8.822;2023-09-07T13:10:47;3.55;;;2.72;;
20365;SDS011;10341;49.894;8.822;2023-09-07T13:16:06;2.63;;;2.42;;
20365;SDS011;10341;49.894;8.822;2023-09-07T13:21:26;2.58;;;2.38;;
20365;SDS011;10341;49.894;8.822;2023-09-07T13:26:46;3.70;;;2.53;;
20365;SDS011;10341;49.894;8.822;2023-09-07T13:32:06;3.15;;;2.80;;
20365;SDS011;10341;49.894;8.822;2023-09-07T13:37:26;3.15;;;2.72;;
20365;SDS011;10341;49.894;8.822;2023-09-07T13:42:47;5.47;;;2.80;;
20365;SDS011;10341;49.894;8.822;2023-09-07T13:48:07;3.05;;;2.60;;
20365;SDS011;10341;49.894;8.822;2023-09-07T13:53:27;2.83;;;2.53;;
20365;SDS011;10341;49.894;8.822;2023-09-07T13:58:46;3.33;;;2.95;;
20365;SDS011;10341;49.894;8.822;2023-09-07T14:04:06;3.38;;;3.03;;
20365;SDS011;10341;49.894;8.822;2023-09-07T14:09:25;3.67;;;2.88;;
20365;SDS011;10341;49.894;8.822;2023-09-07T14:14:45;5.57;;;3.10;;
20365;SDS011;10341;49.894;8.822;2023-09-07T14:20:05;4.32;;;2.50;;
20365;SDS011;10341;49.894;8.822;2023-09-07T14:25:25;3.63;;;2.60;;
20365;SDS011;10341;49.894;8.822;2023-09-07T14:30:44;3.28;;;2.75;;
20365;SDS011;10341;49.894;8.822;2023-09-07T14:36:05;3.40;;;2.65;;
20365;SDS011;10341;49.894;8.822;2023-09-07T14:41:25;2.70;;;2.42;;
20365;SDS011;10341;49.894;8.822;2023-09-07T14:46:46;3.45;;;2.50;;
20365;SDS011;10341;49.894;8.822;2023-09-07T14:52:08;4.18;;;2.75;;
20365;SDS011;10341;49.894;8.822;2023-09-07T14:57:27;3.92;;;3.25;;
20365;SDS011;10341;49.894;8.822;2023-09-07T15:02:47;4.43;;;3.00;;
20365;SDS011;10341;49.894;8.822;2023-09-07T15:08:06;3.03;;;2.70;;
20365;SDS011;10341;49.894;8.822;2023-09-07T15:13:27;3.22;;;2.80;;
20365;SDS011;10341;49.894;8.822;2023-09-07T15:18:47;3.00;;;2.70;;
20365;SDS011;10341;49.894;8.822;2023-09-07T15:24:07;3.00;;;2.70;;
20365;SDS011;10341;49.894;8.822;2023-09-07T15:29:27;2.78;;;2.47;;
20365;SDS011;10341;49.894;8.822;2023-09-07T15:34:47;4.20;;;2.85;;
20365;SDS011;10341;49.894;8.822;2023-09-07T15:40:07;3.97;;;2.63;;
20365;SDS011;10341;49.894;8.822;2023-09-07T15:45:27;5.03;;;2.70;;
20365;SDS011;10341;49.894;8.822;2023-09-07T15:50:46;5.13;;;3.00;;
20365;SDS011;10341;49.894;8.822;2023-09-07T15:56:06;4.70;;;3.25;;
20365;SDS011;10341;49.894;8.822;2023-09-07T16:01:26;5.03;;;3.97;;
20365;SDS011;10341;49.894;8.822;2023-09-07T16:06:45;7.50;;;4.90;;
20365;SDS011;10341;49.894;8.822;2023-09-07T16:12:05;6.15;;;4.20;;
20365;SDS011;10341;49.894;8.822;2023-09-07T16:17:25;3.63;;;2.92;;
20365;SDS011;10341;49.894;8.822;2023-09-07T16:22:45;3.47;;;3.15;;
20365;SDS011;10341;49.894;8.822;2023-09-07T16:28:04;5.22;;;3.08;;
20365;SDS011;10341;49.894;8.822;2023-09-07T16:33:25;5.10;;;3.15;;
20365;SDS011;10341;49.894;8.822;2023-09-07T16:38:45;5.03;;;4.10;;
20365;SDS011;10341;49.894;8.822;2023-09-07T16:44:29;3.42;;;2.95;;
20365;SDS011;10341;49.894;8.822;2023-09-07T16:49:49;3.90;;;2.92;;
20365;SDS011;10341;49.894;8.822;2023-09-07T16:55:08;4.10;;;3.15;;
20365;SDS011;10341;49.894;8.822;2023-09-07T17:00:28;4.05;;;2.95;;
20365;SDS011;10341;49.894;8.822;2023-09-07T17:11:06;12.93;;;7.53;;
20365;SDS011;10341;49.894;8.822;2023-09-07T17:16:26;8.40;;;5.00;;
20365;SDS011;10341;49.894;8.822;2023-09-07T17:21:46;7.55;;;4.47;;
20365;SDS011;10341;49.894;8.822;2023-09-07T17:27:05;5.45;;;3.97;;
20365;SDS011;10341;49.894;8.822;2023-09-07T17:32:25;4.60;;;3.60;;
20365;SDS011;10341;49.894;8.822;2023-09-07T17:43:04;10.57;;;6.63;;
20365;SDS011;10341;49.894;8.822;2023-09-07T17:48:23;7.23;;;4.33;;
20365;SDS011;10341;49.894;8.822;2023-09-07T17:53:43;6.72;;;3.67;;
20365;SDS011;10341;49.894;8.822;2023-09-07T17:59:03;4.72;;;3.72;;
20365;SDS011;10341;49.894;8.822;2023-09-07T18:04:22;5.00;;;3.60;;
20365;SDS011;10341;49.894;8.822;2023-09-07T18:09:42;4.90;;;4.10;;
20365;SDS011;10341;49.894;8.822;2023-09-07T18:15:01;6.63;;;3.90;;
20365;SDS011;10341;49.894;8.822;2023-09-07T18:20:21;5.28;;;3.70;;
20365;SDS011;10341;49.894;8.822;2023-09-07T18:25:41;5.15;;;3.60;;
20365;SDS011;10341;49.894;8.822;2023-09-07T18:31:01;10.23;;;6.22;;
20365;SDS011;10341;49.894;8.822;2023-09-07T18:36:20;7.65;;;5.40;;
20365;SDS011;10341;49.894;8.822;2023-09-07T18:41:40;6.03;;;4.10;;
20365;SDS011;10341;49.894;8.822;2023-09-07T18:46:59;4.03;;;3.60;;
20365;SDS011;10341;49.894;8.822;2023-09-07T18:52:19;5.65;;;4.07;;
20365;SDS011;10341;49.894;8.822;2023-09-07T18:57:39;5.63;;;3.75;;
20365;SDS011;10341;49.894;8.822;2023-09-07T19:02:58;6.35;;;4.40;;
20365;SDS011;10341;49.894;8.822;2023-09-07T19:08:19;7.63;;;4.50;;
20365;SDS011;10341;49.894;8.822;2023-09-07T19:13:40;6.15;;;4.57;;
20365;SDS011;10341;49.894;8.822;2023-09-07T19:19:00;5.63;;;4.57;;
20365;SDS011;10341;49.894;8.822;2023-09-07T19:24:20;6.82;;;4.28;;
20365;SDS011;10341;49.894;8.822;2023-09-07T19:29:39;4.93;;;4.43;;
20365;SDS011;10341;49.894;8.822;2023-09-07T19:35:00;7.18;;;4.68;;
20365;SDS011;10341;49.894;8.822;2023-09-07T19:40:23;7.75;;;4.85;;
20365;SDS011;10341;49.894;8.822;2023-09-07T19:45:45;5.80;;;4.70;;
20365;SDS011;10341;49.894;8.822;2023-09-07T19:51:11;7.47;;;5.57;;
20365;SDS011;10341;49.894;8.822;2023-09-07T19:56:35;6.95;;;5.10;;
20365;SDS011;10341;49.894;8.822;2023-09-07T20:01:56;6.03;;;4.72;;
20365;SDS011;10341;49.894;8.822;2023-09-07T20:07:17;6.72;;;4.50;;
20365;SDS011;10341;49.894;8.822;2023-09-07T20:12:37;8.25;;;5.13;;
20365;SDS011;10341;49.894;8.822;2023-09-07T20:17:56;9.48;;;5.03;;
20365;SDS011;10341;49.894;8.822;2023-09-07T20:23:16;8.68;;;5.32;;
20365;SDS011;10341;49.894;8.822;2023-09-07T20:28:35;8.43;;;5.40;;
20365;SDS011;10341;49.894;8.822;2023-09-07T20:33:55;10.23;;;6.30;;
20365;SDS011;10341;49.894;8.822;2023-09-07T20:39:14;9.75;;;6.45;;
20365;SDS011;10341;49.894;8.822;2023-09-07T20:44:34;8.60;;;5.43;;
20365;SDS011;10341;49.894;8.822;2023-09-07T20:49:54;9.25;;;5.40;;
20365;SDS011;10341;49.894;8.822;2023-09-07T21:00:34;6.15;;;4.70;;
20365;SDS011;10341;49.894;8.822;2023-09-07T21:05:54;7.10;;;4.53;;
20365;SDS011;10341;49.894;8.822;2023-09-07T21:11:13;7.72;;;4.68;;
20365;SDS011;10341;49.894;8.822;2023-09-07T21:16:33;6.35;;;4.65;;
20365;SDS011;10341;49.894;8.822;2023-09-07T21:21:52;5.10;;;4.60;;
20365;SDS011;10341;49.894;8.822;2023-09-07T21:27:12;5.05;;;3.88;;
20365;SDS011;10341;49.894;8.822;2023-09-07T21:32:32;5.38;;;4.30;;
20365;SDS011;10341;49.894;8.822;2023-09-07T21:37:51;6.90;;;4.90;;
20365;SDS011;10341;49.894;8.822;2023-09-07T21:43:11;5.90;;;4.57;;
20365;SDS011;10341;49.894;8.822;2023-09-07T21:48:31;6.90;;;4.75;;
20365;SDS011;10341;49.894;8.822;2023-09-07T21:53:50;6.67;;;5.20;;
20365;SDS011;10341;49.894;8.822;2023-09-07T21:59:10;6.20;;;4.70;;
20365;SDS011;10341;49.894;8.822;2023-09-07T22:04:29;8.50;;;5.00;;
20365;SDS011;10341;49.894;8.822;2023-09-07T22:09:49;6.82;;;4.97;;
20365;SDS011;10341;49.894;8.822;2023-09-07T22:15:08;6.85;;;4.63;;
20365;SDS011;10341;49.894;8.822;2023-09-07T22:20:27;7.55;;;4.57;;
20365;SDS011;10341;49.894;8.822;2023-09-07T22:25:47;5.28;;;4.43;;
20365;SDS011;10341;49.894;8.822;2023-09-07T22:31:07;5.63;;;4.50;;
20365;SDS011;10341;49.894;8.822;2023-09-07T22:36:26;6.20;;;4.87;;
20365;SDS011;10341;49.894;8.822;2023-09-07T22:41:45;6.23;;;4.63;;
20365;SDS011;10341;49.894;8.822;2023-09-07T22:47:05;6.68;;;5.03;;
20365;SDS011;10341;49.894;8.822;2023-09-07T22:52:25;5.45;;;4.53;;
20365;SDS011;10341;49.894;8.822;2023-09-07T22:57:45;9.15;;;5.35;;
20365;SDS011;10341;49.894;8.822;2023-09-07T23:03:04;6.70;;;5.00;;
20365;SDS011;10341;49.894;8.822;2023-09-07T23:08:24;8.27;;;5.72;;
20365;SDS011;10341;49.894;8.822;2023-09-07T23:13:49;7.38;;;4.65;;
20365;SDS011;10341;49.894;8.822;2023-09-07T23:19:09;6.07;;;4.60;;
20365;SDS011;10341;49.894;8.822;2023-09-07T23:24:29;5.50;;;4.43;;
20365;SDS011;10341;49.894;8.822;2023-09-07T23:29:48;4.60;;;3.97;;
20365;SDS011;10341;49.894;8.822;2023-09-07T23:35:08;5.47;;;4.50;;
20365;SDS011;10341;49.894;8.822;2023-09-07T23:45:47;6.72;;;4.88;;
20365;SDS011;10341;49.894;8.822;2023-09-07T23:51:07;8.02;;;5.13;;
20365;SDS011;10341;49.894;8.822;2023-09-07T23:56:27;11.38;;;5.30;;
